createdAt,value
2018-07-01T00:00:54.990Z,83.60
2018-07-01T00:05:39.615Z,83.60
2018-07-01T00:10:24.196Z,82.90
2018-07-01T00:15:09.248Z,83.40
2018-07-01T00:19:53.693Z,83.60
2018-07-01T00:24:38.497Z,83.50
2018-07-01T00:29:23.018Z,82.40
2018-07-01T00:34:07.672Z,81.50
2018-07-01T00:38:52.136Z,83.30
2018-07-01T00:43:36.548Z,84.70
2018-07-01T00:48:21.048Z,84.80
2018-07-01T00:53:05.518Z,84.30
2018-07-01T00:57:49.957Z,84.10
2018-07-01T01:02:34.407Z,83.60
2018-07-01T01:07:18.857Z,84.70
2018-07-01T01:12:03.365Z,85.20
2018-07-01T01:16:47.957Z,85.80
2018-07-01T01:21:32.371Z,86.00
2018-07-01T01:26:17.003Z,86.90
2018-07-01T01:31:01.486Z,87.60
2018-07-01T01:35:46.243Z,90.00
2018-07-01T01:40:34.971Z,90.60
2018-07-01T01:45:25.223Z,89.60
2018-07-01T01:50:17.328Z,89.70
2018-07-01T01:55:08.476Z,90.90
2018-07-01T01:59:58.199Z,91.60
2018-07-01T02:04:48.155Z,92.00
2018-07-01T02:09:34.558Z,92.60
2018-07-01T02:14:25.784Z,93.00
2018-07-01T02:19:10.264Z,93.90
2018-07-01T02:23:57.964Z,94.50
2018-07-01T02:28:42.563Z,95.20
2018-07-01T02:33:26.945Z,96.70
2018-07-01T02:38:11.271Z,96.90
2018-07-01T02:42:55.804Z,97.50
2018-07-01T02:47:40.224Z,98.60
2018-07-01T02:52:24.718Z,99.90
2018-07-01T02:57:09.129Z,99.90
2018-07-01T03:01:53.512Z,99.90
2018-07-01T03:06:37.937Z,99.90
2018-07-01T03:11:22.354Z,99.90
2018-07-01T03:16:06.806Z,99.90
2018-07-01T03:20:51.258Z,99.90
2018-07-01T03:25:35.679Z,99.90
2018-07-01T03:30:20.095Z,99.90
2018-07-01T03:35:04.594Z,99.90
2018-07-01T03:39:49.017Z,99.90
2018-07-01T03:44:33.604Z,99.90
2018-07-01T03:49:17.984Z,99.90
2018-07-01T03:54:02.540Z,99.90
2018-07-01T03:58:47.168Z,97.00
2018-07-01T04:03:31.623Z,93.70
2018-07-01T04:08:16.191Z,91.20
2018-07-01T04:13:00.593Z,91.80
2018-07-01T04:17:45.031Z,93.80
2018-07-01T04:22:29.494Z,95.40
2018-07-01T04:27:13.912Z,96.30
2018-07-01T04:31:58.453Z,97.20
2018-07-01T04:36:42.923Z,98.30
2018-07-01T04:41:27.596Z,98.90
2018-07-01T04:46:12.034Z,97.10
2018-07-01T04:50:56.548Z,96.00
2018-07-01T04:55:41.068Z,95.30
2018-07-01T05:00:26.563Z,94.40
2018-07-01T05:05:11.058Z,93.10
2018-07-01T05:09:55.553Z,92.50
2018-07-01T05:14:40.070Z,91.10
2018-07-01T05:19:24.452Z,90.60
2018-07-01T05:24:08.886Z,89.70
2018-07-01T05:29:07.400Z,88.80
2018-07-01T05:33:52.122Z,86.40
2018-07-01T05:38:38.208Z,85.00
2018-07-01T05:43:23.823Z,84.30
2018-07-01T05:48:08.440Z,82.70
2018-07-01T05:52:53.509Z,80.80
2018-07-01T05:57:38.516Z,77.20
2018-07-01T06:02:22.939Z,77.60
2018-07-01T06:07:08.426Z,76.40
2018-07-01T06:16:39.781Z,73.90
2018-07-01T06:21:24.355Z,72.40
2018-07-01T06:26:08.904Z,74.90
2018-07-01T06:30:53.400Z,70.00
2018-07-01T06:35:37.923Z,69.90
2018-07-01T06:40:22.384Z,69.10
2018-07-01T06:45:06.784Z,66.50
2018-07-01T06:49:51.510Z,66.70
2018-07-01T06:54:36.216Z,67.70
2018-07-01T06:59:20.605Z,64.90
2018-07-01T07:04:05.010Z,64.40
2018-07-01T07:08:55.496Z,62.40
2018-07-01T07:13:40.579Z,62.10
2018-07-01T07:18:25.004Z,59.00
2018-07-01T07:23:09.503Z,58.40
2018-07-01T07:27:54.067Z,56.90
2018-07-01T07:32:38.403Z,52.90
2018-07-01T07:37:22.971Z,53.50
2018-07-01T07:42:07.401Z,53.20
2018-07-01T07:46:52.107Z,52.60
2018-07-01T07:51:36.608Z,53.40
2018-07-01T08:05:48.916Z,52.80
2018-07-01T08:10:33.404Z,51.90
2018-07-01T08:15:18.047Z,53.30
2018-07-01T08:20:06.296Z,50.70
2018-07-01T08:24:50.868Z,50.60
2018-07-01T08:29:35.642Z,49.40
2018-07-01T08:34:20.194Z,50.20
2018-07-01T08:44:02.367Z,50.70
2018-07-01T08:48:46.718Z,49.60
2018-07-01T08:53:31.162Z,51.40
2018-07-01T08:58:16.728Z,50.70
2018-07-01T09:03:01.137Z,51.20
2018-07-01T09:07:45.649Z,52.60
2018-07-01T09:12:30.083Z,50.20
2018-07-01T09:17:14.831Z,49.40
2018-07-01T09:22:00.949Z,48.80
2018-07-01T09:26:46.300Z,49.60
2018-07-01T09:31:31.053Z,49.90
2018-07-01T09:36:16.218Z,49.20
2018-07-01T09:41:00.676Z,49.40
2018-07-01T09:45:46.715Z,48.40
2018-07-01T09:50:31.351Z,50.00
2018-07-01T09:55:15.778Z,51.40
2018-07-01T10:00:00.245Z,50.80
2018-07-01T10:04:44.767Z,50.50
2018-07-01T10:09:29.451Z,49.90
2018-07-01T10:14:13.896Z,51.20
2018-07-01T10:18:58.330Z,53.10
2018-07-01T10:23:43.097Z,50.80
2018-07-01T10:28:28.511Z,48.80
2018-07-01T10:33:13.752Z,50.20
2018-07-01T10:37:58.434Z,50.80
2018-07-01T10:42:49.816Z,52.70
2018-07-01T10:47:34.330Z,51.20
2018-07-01T10:52:19.727Z,50.60
2018-07-01T10:57:04.140Z,51.90
2018-07-01T11:01:48.859Z,52.90
2018-07-01T11:06:33.411Z,53.70
2018-07-01T11:11:18.054Z,50.40
2018-07-01T11:16:02.623Z,49.10
2018-07-01T11:20:47.579Z,50.70
2018-07-01T11:25:32.443Z,48.60
2018-07-01T11:30:18.138Z,48.00
2018-07-01T11:35:02.958Z,50.60
2018-07-01T11:39:47.557Z,49.50
2018-07-01T11:44:32.529Z,51.10
2018-07-01T11:49:17.147Z,50.10
2018-07-01T11:54:01.963Z,50.20
2018-07-01T11:58:46.685Z,51.80
2018-07-01T12:03:31.142Z,52.00
2018-07-01T12:08:15.564Z,49.40
2018-07-01T12:13:00.080Z,46.10
2018-07-01T12:17:44.772Z,45.30
2018-07-01T12:22:29.468Z,44.80
2018-07-01T12:27:14.000Z,45.90
2018-07-01T12:41:26.769Z,46.60
2018-07-01T12:46:11.147Z,44.10
2018-07-01T12:50:57.066Z,43.10
2018-07-01T12:55:41.509Z,44.40
2018-07-01T13:05:10.222Z,44.20
2018-07-01T13:09:54.642Z,44.80
2018-07-01T13:14:39.010Z,45.60
2018-07-01T13:19:23.399Z,45.20
2018-07-01T13:24:07.989Z,44.90
2018-07-01T13:28:52.431Z,41.80
2018-07-01T13:33:36.915Z,40.00
2018-07-01T13:38:21.309Z,40.00
2018-07-01T13:47:49.724Z,41.70
2018-07-01T13:52:34.206Z,43.90
2018-07-01T13:57:18.731Z,45.70
2018-07-01T14:02:03.158Z,46.00
2018-07-01T14:06:47.645Z,45.60
2018-07-01T14:11:32.208Z,45.70
2018-07-01T14:16:16.603Z,46.20
2018-07-01T14:21:01.281Z,45.20
2018-07-01T14:25:45.706Z,45.70
2018-07-01T14:30:30.265Z,46.70
2018-07-01T14:35:14.711Z,44.30
2018-07-01T14:39:59.371Z,46.70
2018-07-01T14:44:43.943Z,41.30
2018-07-01T14:49:29.575Z,41.40
2018-07-01T14:54:14.321Z,42.00
2018-07-01T14:58:58.868Z,43.10
2018-07-01T15:03:43.399Z,44.00
2018-07-01T15:08:28.040Z,45.40
2018-07-01T15:13:12.644Z,46.60
2018-07-01T15:17:57.284Z,46.90
2018-07-01T15:22:41.914Z,46.00
2018-07-01T15:27:27.075Z,46.10
2018-07-01T15:32:11.659Z,45.70
2018-07-01T15:36:56.396Z,45.10
2018-07-01T15:41:41.272Z,43.90
2018-07-01T15:46:26.098Z,42.80
2018-07-01T15:51:11.548Z,39.40
2018-07-01T15:55:56.385Z,38.90
2018-07-01T16:00:40.892Z,38.60
2018-07-01T16:10:09.473Z,33.90
2018-07-01T16:14:54.213Z,33.60
2018-07-01T16:19:38.737Z,35.10
2018-07-01T16:24:23.570Z,37.60
2018-07-01T16:29:08.864Z,39.70
2018-07-01T16:33:53.631Z,41.00
2018-07-01T16:38:38.117Z,41.30
2018-07-01T16:43:22.926Z,42.70
2018-07-01T16:48:08.147Z,42.20
2018-07-01T16:52:52.816Z,39.60
2018-07-01T16:57:37.482Z,42.20
2018-07-01T17:02:22.120Z,39.80
2018-07-01T17:07:07.137Z,38.10
2018-07-01T17:11:51.836Z,34.10
2018-07-01T17:16:36.790Z,32.60
2018-07-01T17:21:21.392Z,32.40
2018-07-01T17:26:06.413Z,35.00
2018-07-01T17:32:57.392Z,36.10
2018-07-01T17:37:41.958Z,35.80
2018-07-01T17:42:26.567Z,33.60
2018-07-01T17:47:11.281Z,34.00
2018-07-01T17:51:55.890Z,33.80
2018-07-01T17:56:40.610Z,34.90
2018-07-01T18:01:25.241Z,37.60
2018-07-01T18:06:10.863Z,39.10
2018-07-01T18:10:55.640Z,40.60
2018-07-01T18:15:40.342Z,41.40
2018-07-01T18:20:25.231Z,44.80
2018-07-01T18:25:12.342Z,44.40
2018-07-01T18:29:56.518Z,46.60
2018-07-01T18:34:41.848Z,47.90
2018-07-01T18:39:28.074Z,50.80
2018-07-01T18:44:13.445Z,51.00
2018-07-01T18:48:58.999Z,50.80
2018-07-01T18:53:44.441Z,51.30
2018-07-01T18:58:29.464Z,52.60
2018-07-01T19:03:14.090Z,52.60
2018-07-01T19:07:58.511Z,50.90
2018-07-01T19:12:43.186Z,52.00
2018-07-01T19:17:27.946Z,52.90
2018-07-01T19:22:12.448Z,54.10
2018-07-01T19:26:57.089Z,53.80
2018-07-01T19:31:41.973Z,55.50
2018-07-01T19:36:26.474Z,57.20
2018-07-01T19:41:11.078Z,58.10
2018-07-01T19:45:55.652Z,59.90
2018-07-01T19:50:40.492Z,62.60
2018-07-01T19:55:25.274Z,65.10
2018-07-01T20:00:11.460Z,66.10
2018-07-01T20:04:56.463Z,68.30
2018-07-01T20:09:41.226Z,70.20
2018-07-01T20:14:25.791Z,72.30
2018-07-01T20:19:10.928Z,73.60
2018-07-01T20:23:55.897Z,74.50
2018-07-01T20:28:40.683Z,74.80
2018-07-01T20:33:25.523Z,76.00
2018-07-01T20:38:10.472Z,77.00
2018-07-01T20:42:55.047Z,77.30
2018-07-01T20:47:39.749Z,77.00
2018-07-01T20:52:24.723Z,78.70
2018-07-01T20:57:09.548Z,79.00
2018-07-01T21:01:54.311Z,79.30
2018-07-01T21:06:39.132Z,79.40
2018-07-01T21:11:23.795Z,79.80
2018-07-01T21:16:08.689Z,81.00
2018-07-01T21:20:53.322Z,80.90
2018-07-01T21:25:38.066Z,80.60
2018-07-01T21:30:22.767Z,81.30
2018-07-01T21:35:07.682Z,81.70
2018-07-01T21:39:52.242Z,83.00
2018-07-01T21:44:37.196Z,83.50
2018-07-01T21:49:22.014Z,81.10
2018-07-01T21:54:07.039Z,79.90
2018-07-01T21:58:51.755Z,79.30
2018-07-01T22:03:36.913Z,80.00
2018-07-01T22:08:21.820Z,79.70
2018-07-01T22:15:27.354Z,80.10
2018-07-01T22:20:11.698Z,82.50
2018-07-01T22:24:57.843Z,85.60
2018-07-01T22:29:42.294Z,86.10
2018-07-01T22:34:27.000Z,88.20
2018-07-01T22:39:15.615Z,90.90
2018-07-01T22:44:00.072Z,92.00
2018-07-01T22:48:45.113Z,91.80
2018-07-01T22:53:30.720Z,91.80
2018-07-01T22:58:15.419Z,91.90
2018-07-01T23:03:21.479Z,91.40
2018-07-01T23:08:05.888Z,91.20
2018-07-01T23:12:51.655Z,92.20
2018-07-01T23:17:36.580Z,93.50
2018-07-01T23:22:21.227Z,94.80
2018-07-01T23:27:05.832Z,95.50
2018-07-01T23:32:03.584Z,94.90
2018-07-01T23:36:48.462Z,94.10
2018-07-01T23:41:33.197Z,94.10
2018-07-01T23:46:41.744Z,94.80
2018-07-01T23:51:30.162Z,95.00
2018-07-01T23:56:15.930Z,93.60
